sensor_id;sensor_type;location;lat;lon;timestamp;temperature;humidity
39017;DHT22;24784;45.582;5.276;2024-02-23T00:02:17;7.60;99.90
39017;DHT22;24784;45.582;5.276;2024-02-23T00:04:43;7.60;99.90
39017;DHT22;24784;45.582;5.276;2024-02-23T00:07:10;7.70;99.90
39017;DHT22;24784;45.582;5.276;2024-02-23T00:09:36;7.60;99.90
39017;DHT22;24784;45.582;5.276;2024-02-23T00:12:05;7.60;99.90
39017;DHT22;24784;45.582;5.276;2024-02-23T00:14:31;7.60;99.90
39017;DHT22;24784;45.582;5.276;2024-02-23T00:16:57;7.50;99.90
39017;DHT22;24784;45.582;5.276;2024-02-23T00:19:26;7.50;99.90
39017;DHT22;24784;45.582;5.276;2024-02-23T00:21:52;7.40;99.90
39017;DHT22;24784;45.582;5.276;2024-02-23T00:24:18;7.40;99.90
39017;DHT22;24784;45.582;5.276;2024-02-23T00:26:46;7.40;99.90
39017;DHT22;24784;45.582;5.276;2024-02-23T00:29:12;7.50;99.90
39017;DHT22;24784;45.582;5.276;2024-02-23T00:31:38;7.40;99.90
39017;DHT22;24784;45.582;5.276;2024-02-23T00:34:06;7.40;99.90
39017;DHT22;24784;45.582;5.276;2024-02-23T00:36:38;7.40;99.90
39017;DHT22;24784;45.582;5.276;2024-02-23T00:39:03;7.30;99.90
39017;DHT22;24784;45.582;5.276;2024-02-23T00:41:29;7.20;99.90
39017;DHT22;24784;45.582;5.276;2024-02-23T00:43:55;7.20;99.90
39017;DHT22;24784;45.582;5.276;2024-02-23T00:46:20;7.20;99.90
39017;DHT22;24784;45.582;5.276;2024-02-23T00:48:46;7.10;99.90
39017;DHT22;24784;45.582;5.276;2024-02-23T00:51:12;7.10;99.90
39017;DHT22;24784;45.582;5.276;2024-02-23T00:53:38;7.10;99.90
39017;DHT22;24784;45.582;5.276;2024-02-23T00:56:04;7.10;99.90
39017;DHT22;24784;45.582;5.276;2024-02-23T00:58:29;7.00;99.90
39017;DHT22;24784;45.582;5.276;2024-02-23T01:00:55;7.00;99.90
39017;DHT22;24784;45.582;5.276;2024-02-23T01:03:21;6.90;99.90
39017;DHT22;24784;45.582;5.276;2024-02-23T01:05:47;6.90;99.90
39017;DHT22;24784;45.582;5.276;2024-02-23T01:08:13;6.80;99.90
39017;DHT22;24784;45.582;5.276;2024-02-23T01:10:38;6.90;99.90
39017;DHT22;24784;45.582;5.276;2024-02-23T01:13:04;6.80;99.90
39017;DHT22;24784;45.582;5.276;2024-02-23T01:15:30;6.80;99.90
39017;DHT22;24784;45.582;5.276;2024-02-23T01:17:56;6.80;99.90
39017;DHT22;24784;45.582;5.276;2024-02-23T01:20:22;6.70;99.90
39017;DHT22;24784;45.582;5.276;2024-02-23T01:22:47;6.70;99.90
39017;DHT22;24784;45.582;5.276;2024-02-23T01:25:13;6.70;99.90
39017;DHT22;24784;45.582;5.276;2024-02-23T01:27:41;6.60;99.90
39017;DHT22;24784;45.582;5.276;2024-02-23T01:30:07;6.60;99.90
39017;DHT22;24784;45.582;5.276;2024-02-23T01:32:33;6.50;99.90
39017;DHT22;24784;45.582;5.276;2024-02-23T01:34:59;6.50;99.90
39017;DHT22;24784;45.582;5.276;2024-02-23T01:37:24;6.50;99.90
39017;DHT22;24784;45.582;5.276;2024-02-23T01:39:50;6.40;99.90
39017;DHT22;24784;45.582;5.276;2024-02-23T01:42:15;6.30;99.90
39017;DHT22;24784;45.582;5.276;2024-02-23T01:44:41;6.20;99.90
39017;DHT22;24784;45.582;5.276;2024-02-23T01:47:07;6.20;99.90
39017;DHT22;24784;45.582;5.276;2024-02-23T01:49:33;6.10;99.90
39017;DHT22;24784;45.582;5.276;2024-02-23T01:52:00;6.10;99.90
39017;DHT22;24784;45.582;5.276;2024-02-23T01:54:26;6.20;99.90
39017;DHT22;24784;45.582;5.276;2024-02-23T01:56:54;6.00;99.90
39017;DHT22;24784;45.582;5.276;2024-02-23T01:59:21;6.00;99.90
39017;DHT22;24784;45.582;5.276;2024-02-23T02:01:47;6.00;99.90
39017;DHT22;24784;45.582;5.276;2024-02-23T02:04:13;6.00;99.90
39017;DHT22;24784;45.582;5.276;2024-02-23T02:06:39;5.90;99.90
39017;DHT22;24784;45.582;5.276;2024-02-23T02:09:05;6.00;99.90
39017;DHT22;24784;45.582;5.276;2024-02-23T02:11:31;5.90;99.90
39017;DHT22;24784;45.582;5.276;2024-02-23T02:13:56;5.80;99.90
39017;DHT22;24784;45.582;5.276;2024-02-23T02:16:22;5.80;99.90
39017;DHT22;24784;45.582;5.276;2024-02-23T02:18:48;5.70;99.90
39017;DHT22;24784;45.582;5.276;2024-02-23T02:21:13;5.60;99.90
39017;DHT22;24784;45.582;5.276;2024-02-23T02:23:39;5.60;99.90
39017;DHT22;24784;45.582;5.276;2024-02-23T02:26:05;5.60;99.90
39017;DHT22;24784;45.582;5.276;2024-02-23T02:28:31;5.50;99.90
39017;DHT22;24784;45.582;5.276;2024-02-23T02:30:57;5.50;99.90
39017;DHT22;24784;45.582;5.276;2024-02-23T02:33:22;5.40;99.90
39017;DHT22;24784;45.582;5.276;2024-02-23T02:35:49;5.30;99.90
39017;DHT22;24784;45.582;5.276;2024-02-23T02:38:15;5.20;99.90
39017;DHT22;24784;45.582;5.276;2024-02-23T02:40:41;5.20;99.90
39017;DHT22;24784;45.582;5.276;2024-02-23T02:43:07;5.10;99.90
39017;DHT22;24784;45.582;5.276;2024-02-23T02:45:33;5.10;99.90
39017;DHT22;24784;45.582;5.276;2024-02-23T02:48:03;5.10;99.90
39017;DHT22;24784;45.582;5.276;2024-02-23T02:50:29;5.10;99.90
39017;DHT22;24784;45.582;5.276;2024-02-23T02:52:54;5.00;99.90
39017;DHT22;24784;45.582;5.276;2024-02-23T02:55:20;5.00;99.90
39017;DHT22;24784;45.582;5.276;2024-02-23T02:57:46;5.00;99.90
39017;DHT22;24784;45.582;5.276;2024-02-23T03:00:12;5.00;99.90
39017;DHT22;24784;45.582;5.276;2024-02-23T03:02:37;4.90;99.90
39017;DHT22;24784;45.582;5.276;2024-02-23T03:05:03;4.90;99.90
39017;DHT22;24784;45.582;5.276;2024-02-23T03:07:29;4.80;99.90
39017;DHT22;24784;45.582;5.276;2024-02-23T03:09:55;4.80;99.90
39017;DHT22;24784;45.582;5.276;2024-02-23T03:12:20;4.70;99.90
39017;DHT22;24784;45.582;5.276;2024-02-23T03:14:46;4.60;99.90
39017;DHT22;24784;45.582;5.276;2024-02-23T03:17:12;4.70;99.90
39017;DHT22;24784;45.582;5.276;2024-02-23T03:19:38;4.60;99.90
39017;DHT22;24784;45.582;5.276;2024-02-23T03:22:04;4.50;99.90
39017;DHT22;24784;45.582;5.276;2024-02-23T03:24:30;4.40;99.90
39017;DHT22;24784;45.582;5.276;2024-02-23T03:26:55;4.40;99.90
39017;DHT22;24784;45.582;5.276;2024-02-23T03:29:22;4.40;99.90
39017;DHT22;24784;45.582;5.276;2024-02-23T03:31:55;4.40;99.90
39017;DHT22;24784;45.582;5.276;2024-02-23T03:34:20;4.50;99.90
39017;DHT22;24784;45.582;5.276;2024-02-23T03:36:46;4.50;99.90
39017;DHT22;24784;45.582;5.276;2024-02-23T03:39:11;4.50;99.90
39017;DHT22;24784;45.582;5.276;2024-02-23T03:41:37;4.50;99.90
39017;DHT22;24784;45.582;5.276;2024-02-23T03:44:03;4.40;99.90
39017;DHT22;24784;45.582;5.276;2024-02-23T03:46:28;4.40;99.90
39017;DHT22;24784;45.582;5.276;2024-02-23T03:48:54;4.30;99.90
39017;DHT22;24784;45.582;5.276;2024-02-23T03:51:19;4.20;99.90
39017;DHT22;24784;45.582;5.276;2024-02-23T03:53:45;4.20;99.90
39017;DHT22;24784;45.582;5.276;2024-02-23T03:56:11;4.10;99.90
39017;DHT22;24784;45.582;5.276;2024-02-23T03:58:36;4.10;99.90
39017;DHT22;24784;45.582;5.276;2024-02-23T04:01:02;4.00;99.90
39017;DHT22;24784;45.582;5.276;2024-02-23T04:03:28;4.00;99.90
39017;DHT22;24784;45.582;5.276;2024-02-23T04:05:53;3.90;99.90
39017;DHT22;24784;45.582;5.276;2024-02-23T04:08:19;4.00;99.90
39017;DHT22;24784;45.582;5.276;2024-02-23T04:10:44;4.10;99.90
39017;DHT22;24784;45.582;5.276;2024-02-23T04:13:10;4.00;99.90
39017;DHT22;24784;45.582;5.276;2024-02-23T04:15:39;4.00;99.90
39017;DHT22;24784;45.582;5.276;2024-02-23T04:18:05;3.90;99.90
39017;DHT22;24784;45.582;5.276;2024-02-23T04:20:31;3.90;99.90
39017;DHT22;24784;45.582;5.276;2024-02-23T04:22:57;3.90;99.90
39017;DHT22;24784;45.582;5.276;2024-02-23T04:25:23;3.90;99.90
39017;DHT22;24784;45.582;5.276;2024-02-23T04:27:48;3.90;99.90
39017;DHT22;24784;45.582;5.276;2024-02-23T04:30:14;3.90;99.90
39017;DHT22;24784;45.582;5.276;2024-02-23T04:32:40;3.80;99.90
39017;DHT22;24784;45.582;5.276;2024-02-23T04:35:06;3.80;99.90
39017;DHT22;24784;45.582;5.276;2024-02-23T04:37:31;3.80;99.90
39017;DHT22;24784;45.582;5.276;2024-02-23T04:39:57;3.70;99.90
39017;DHT22;24784;45.582;5.276;2024-02-23T04:42:22;3.70;99.90
39017;DHT22;24784;45.582;5.276;2024-02-23T04:44:48;3.60;99.90
39017;DHT22;24784;45.582;5.276;2024-02-23T04:47:15;3.70;99.90
39017;DHT22;24784;45.582;5.276;2024-02-23T04:49:40;3.50;99.90
39017;DHT22;24784;45.582;5.276;2024-02-23T04:52:07;3.40;99.90
39017;DHT22;24784;45.582;5.276;2024-02-23T04:54:34;3.50;99.90
39017;DHT22;24784;45.582;5.276;2024-02-23T04:57:00;3.60;99.90
39017;DHT22;24784;45.582;5.276;2024-02-23T04:59:26;3.50;99.90
39017;DHT22;24784;45.582;5.276;2024-02-23T05:01:52;3.50;99.90
39017;DHT22;24784;45.582;5.276;2024-02-23T05:04:17;3.50;99.90
39017;DHT22;24784;45.582;5.276;2024-02-23T05:06:43;3.40;99.90
39017;DHT22;24784;45.582;5.276;2024-02-23T05:09:09;3.40;99.90
39017;DHT22;24784;45.582;5.276;2024-02-23T05:11:35;3.20;99.90
39017;DHT22;24784;45.582;5.276;2024-02-23T05:14:00;3.20;99.90
39017;DHT22;24784;45.582;5.276;2024-02-23T05:16:26;3.20;99.90
39017;DHT22;24784;45.582;5.276;2024-02-23T05:18:52;3.30;99.90
39017;DHT22;24784;45.582;5.276;2024-02-23T05:21:17;3.30;99.90
39017;DHT22;24784;45.582;5.276;2024-02-23T05:23:43;3.20;99.90
39017;DHT22;24784;45.582;5.276;2024-02-23T05:26:09;3.10;99.90
39017;DHT22;24784;45.582;5.276;2024-02-23T05:28:36;3.20;99.90
39017;DHT22;24784;45.582;5.276;2024-02-23T05:31:02;3.30;99.90
39017;DHT22;24784;45.582;5.276;2024-02-23T05:33:29;3.10;99.90
39017;DHT22;24784;45.582;5.276;2024-02-23T05:35:54;3.00;99.90
39017;DHT22;24784;45.582;5.276;2024-02-23T05:38:20;2.90;99.90
39017;DHT22;24784;45.582;5.276;2024-02-23T05:40:46;2.90;99.90
39017;DHT22;24784;45.582;5.276;2024-02-23T05:43:13;2.80;99.90
39017;DHT22;24784;45.582;5.276;2024-02-23T05:45:39;2.80;99.90
39017;DHT22;24784;45.582;5.276;2024-02-23T05:48:05;2.90;99.90
39017;DHT22;24784;45.582;5.276;2024-02-23T05:50:32;2.90;99.90
39017;DHT22;24784;45.582;5.276;2024-02-23T05:52:57;2.90;99.90
39017;DHT22;24784;45.582;5.276;2024-02-23T05:55:23;3.00;99.90
39017;DHT22;24784;45.582;5.276;2024-02-23T05:57:49;3.00;99.90
39017;DHT22;24784;45.582;5.276;2024-02-23T06:00:16;2.90;99.90
39017;DHT22;24784;45.582;5.276;2024-02-23T06:02:44;2.90;99.90
39017;DHT22;24784;45.582;5.276;2024-02-23T06:05:12;2.80;99.90
39017;DHT22;24784;45.582;5.276;2024-02-23T06:07:38;2.70;99.90
39017;DHT22;24784;45.582;5.276;2024-02-23T06:10:04;2.70;99.90
39017;DHT22;24784;45.582;5.276;2024-02-23T06:12:30;2.70;99.90
39017;DHT22;24784;45.582;5.276;2024-02-23T06:14:56;2.60;99.90
39017;DHT22;24784;45.582;5.276;2024-02-23T06:17:23;2.70;99.90
39017;DHT22;24784;45.582;5.276;2024-02-23T06:19:49;2.60;99.90
39017;DHT22;24784;45.582;5.276;2024-02-23T06:22:15;2.60;99.90
39017;DHT22;24784;45.582;5.276;2024-02-23T06:24:49;2.60;99.90
39017;DHT22;24784;45.582;5.276;2024-02-23T06:27:14;2.70;99.90
39017;DHT22;24784;45.582;5.276;2024-02-23T06:29:40;2.60;99.90
39017;DHT22;24784;45.582;5.276;2024-02-23T06:32:06;2.60;99.90
39017;DHT22;24784;45.582;5.276;2024-02-23T06:34:31;2.60;99.90
39017;DHT22;24784;45.582;5.276;2024-02-23T06:36:57;2.60;99.90
39017;DHT22;24784;45.582;5.276;2024-02-23T06:39:23;2.60;99.90
39017;DHT22;24784;45.582;5.276;2024-02-23T06:41:49;2.50;99.90
39017;DHT22;24784;45.582;5.276;2024-02-23T06:44:14;2.50;99.90
39017;DHT22;24784;45.582;5.276;2024-02-23T06:46:40;2.40;99.90
39017;DHT22;24784;45.582;5.276;2024-02-23T06:49:07;2.40;99.90
39017;DHT22;24784;45.582;5.276;2024-02-23T06:51:33;2.50;99.90
39017;DHT22;24784;45.582;5.276;2024-02-23T06:53:58;2.40;99.90
39017;DHT22;24784;45.582;5.276;2024-02-23T06:56:24;2.40;99.90
39017;DHT22;24784;45.582;5.276;2024-02-23T06:58:49;2.50;99.90
39017;DHT22;24784;45.582;5.276;2024-02-23T07:01:15;2.60;99.90
39017;DHT22;24784;45.582;5.276;2024-02-23T07:03:41;2.60;99.90
39017;DHT22;24784;45.582;5.276;2024-02-23T07:06:08;2.60;99.90
39017;DHT22;24784;45.582;5.276;2024-02-23T07:08:37;2.70;99.90
39017;DHT22;24784;45.582;5.276;2024-02-23T07:11:03;2.70;99.90
39017;DHT22;24784;45.582;5.276;2024-02-23T07:13:28;2.80;99.90
39017;DHT22;24784;45.582;5.276;2024-02-23T07:15:55;2.90;99.90
39017;DHT22;24784;45.582;5.276;2024-02-23T07:18:21;2.90;99.90
39017;DHT22;24784;45.582;5.276;2024-02-23T07:20:47;2.90;99.90
39017;DHT22;24784;45.582;5.276;2024-02-23T07:23:13;3.00;99.90
39017;DHT22;24784;45.582;5.276;2024-02-23T07:25:38;3.10;99.90
39017;DHT22;24784;45.582;5.276;2024-02-23T07:28:04;3.10;99.90
39017;DHT22;24784;45.582;5.276;2024-02-23T07:30:30;3.10;99.90
39017;DHT22;24784;45.582;5.276;2024-02-23T07:32:56;3.10;99.90
39017;DHT22;24784;45.582;5.276;2024-02-23T07:35:22;3.10;99.90
39017;DHT22;24784;45.582;5.276;2024-02-23T07:37:47;3.20;99.90
39017;DHT22;24784;45.582;5.276;2024-02-23T07:40:13;3.20;99.90
39017;DHT22;24784;45.582;5.276;2024-02-23T07:42:39;3.30;99.90
39017;DHT22;24784;45.582;5.276;2024-02-23T07:45:05;3.30;99.90
39017;DHT22;24784;45.582;5.276;2024-02-23T07:47:32;3.30;99.90
39017;DHT22;24784;45.582;5.276;2024-02-23T07:49:58;3.40;99.90
39017;DHT22;24784;45.582;5.276;2024-02-23T07:52:24;3.40;99.90
39017;DHT22;24784;45.582;5.276;2024-02-23T07:54:51;3.40;99.90
39017;DHT22;24784;45.582;5.276;2024-02-23T07:57:18;3.40;99.90
39017;DHT22;24784;45.582;5.276;2024-02-23T07:59:44;3.40;99.90
39017;DHT22;24784;45.582;5.276;2024-02-23T08:02:09;3.40;99.90
39017;DHT22;24784;45.582;5.276;2024-02-23T08:04:35;3.50;99.90
39017;DHT22;24784;45.582;5.276;2024-02-23T08:07:01;3.50;99.90
39017;DHT22;24784;45.582;5.276;2024-02-23T08:09:26;3.50;99.90
39017;DHT22;24784;45.582;5.276;2024-02-23T08:11:52;3.50;99.90
39017;DHT22;24784;45.582;5.276;2024-02-23T08:14:18;3.60;99.90
39017;DHT22;24784;45.582;5.276;2024-02-23T08:16:43;3.60;99.90
39017;DHT22;24784;45.582;5.276;2024-02-23T08:19:09;3.60;99.90
39017;DHT22;24784;45.582;5.276;2024-02-23T08:21:34;3.60;99.90
39017;DHT22;24784;45.582;5.276;2024-02-23T08:24:00;3.60;99.90
39017;DHT22;24784;45.582;5.276;2024-02-23T08:26:26;3.70;99.90
39017;DHT22;24784;45.582;5.276;2024-02-23T08:28:51;3.80;99.90
39017;DHT22;24784;45.582;5.276;2024-02-23T08:31:17;3.80;99.90
39017;DHT22;24784;45.582;5.276;2024-02-23T08:33:42;3.80;99.90
39017;DHT22;24784;45.582;5.276;2024-02-23T08:36:08;3.90;99.90
39017;DHT22;24784;45.582;5.276;2024-02-23T08:38:36;3.90;99.90
39017;DHT22;24784;45.582;5.276;2024-02-23T08:41:02;4.00;99.90
39017;DHT22;24784;45.582;5.276;2024-02-23T08:43:28;4.00;99.90
39017;DHT22;24784;45.582;5.276;2024-02-23T08:45:54;4.10;99.90
39017;DHT22;24784;45.582;5.276;2024-02-23T08:48:19;4.10;99.90
39017;DHT22;24784;45.582;5.276;2024-02-23T08:50:45;4.20;99.90
39017;DHT22;24784;45.582;5.276;2024-02-23T08:53:11;4.30;99.90
39017;DHT22;24784;45.582;5.276;2024-02-23T08:55:36;4.40;99.90
39017;DHT22;24784;45.582;5.276;2024-02-23T08:58:02;4.40;99.90
39017;DHT22;24784;45.582;5.276;2024-02-23T09:00:28;4.40;99.90
39017;DHT22;24784;45.582;5.276;2024-02-23T09:02:54;4.50;99.90
39017;DHT22;24784;45.582;5.276;2024-02-23T09:05:19;4.60;99.90
39017;DHT22;24784;45.582;5.276;2024-02-23T09:07:46;4.70;99.90
39017;DHT22;24784;45.582;5.276;2024-02-23T09:10:12;4.70;99.90
39017;DHT22;24784;45.582;5.276;2024-02-23T09:12:37;4.90;99.90
39017;DHT22;24784;45.582;5.276;2024-02-23T09:15:04;5.00;99.90
39017;DHT22;24784;45.582;5.276;2024-02-23T09:17:30;5.10;99.90
39017;DHT22;24784;45.582;5.276;2024-02-23T09:19:56;5.20;99.90
39017;DHT22;24784;45.582;5.276;2024-02-23T09:22:21;5.30;99.90
39017;DHT22;24784;45.582;5.276;2024-02-23T09:24:48;5.40;99.90
39017;DHT22;24784;45.582;5.276;2024-02-23T09:27:13;5.50;99.90
39017;DHT22;24784;45.582;5.276;2024-02-23T09:29:40;5.50;99.90
39017;DHT22;24784;45.582;5.276;2024-02-23T09:32:07;5.60;99.90
39017;DHT22;24784;45.582;5.276;2024-02-23T09:34:32;5.70;99.90
39017;DHT22;24784;45.582;5.276;2024-02-23T09:36:58;5.80;99.90
39017;DHT22;24784;45.582;5.276;2024-02-23T09:39:24;5.90;99.90
39017;DHT22;24784;45.582;5.276;2024-02-23T09:41:51;5.90;99.90
39017;DHT22;24784;45.582;5.276;2024-02-23T09:44:20;6.00;99.90
39017;DHT22;24784;45.582;5.276;2024-02-23T09:46:49;6.00;99.90
39017;DHT22;24784;45.582;5.276;2024-02-23T09:49:15;6.00;99.90
39017;DHT22;24784;45.582;5.276;2024-02-23T09:51:44;6.00;99.90
39017;DHT22;24784;45.582;5.276;2024-02-23T09:54:10;6.00;99.90
39017;DHT22;24784;45.582;5.276;2024-02-23T09:56:36;6.00;99.90
39017;DHT22;24784;45.582;5.276;2024-02-23T09:59:03;6.10;99.90
39017;DHT22;24784;45.582;5.276;2024-02-23T10:01:32;6.10;99.90
39017;DHT22;24784;45.582;5.276;2024-02-23T10:04:00;6.10;99.90
39017;DHT22;24784;45.582;5.276;2024-02-23T10:06:26;6.30;99.90
39017;DHT22;24784;45.582;5.276;2024-02-23T10:08:52;6.30;99.90
39017;DHT22;24784;45.582;5.276;2024-02-23T10:11:20;6.50;99.90
39017;DHT22;24784;45.582;5.276;2024-02-23T10:13:47;7.00;99.90
39017;DHT22;24784;45.582;5.276;2024-02-23T10:16:15;7.00;99.90
39017;DHT22;24784;45.582;5.276;2024-02-23T10:18:41;7.20;99.90
39017;DHT22;24784;45.582;5.276;2024-02-23T10:21:07;7.40;99.90
39017;DHT22;24784;45.582;5.276;2024-02-23T10:23:33;7.70;99.90
39017;DHT22;24784;45.582;5.276;2024-02-23T10:25:59;7.80;99.90
39017;DHT22;24784;45.582;5.276;2024-02-23T10:28:24;7.90;99.90
39017;DHT22;24784;45.582;5.276;2024-02-23T10:30:50;8.10;99.90
39017;DHT22;24784;45.582;5.276;2024-02-23T10:33:19;8.30;99.90
39017;DHT22;24784;45.582;5.276;2024-02-23T10:35:49;8.40;99.90
39017;DHT22;24784;45.582;5.276;2024-02-23T10:38:17;8.60;99.90
39017;DHT22;24784;45.582;5.276;2024-02-23T10:40:44;8.60;99.90
39017;DHT22;24784;45.582;5.276;2024-02-23T10:43:12;8.70;99.90
39017;DHT22;24784;45.582;5.276;2024-02-23T10:45:41;8.80;99.90
39017;DHT22;24784;45.582;5.276;2024-02-23T10:48:10;8.80;99.90
39017;DHT22;24784;45.582;5.276;2024-02-23T10:50:37;9.00;99.90
39017;DHT22;24784;45.582;5.276;2024-02-23T10:53:07;9.10;99.90
39017;DHT22;24784;45.582;5.276;2024-02-23T10:55:37;9.10;99.90
39017;DHT22;24784;45.582;5.276;2024-02-23T10:58:06;9.20;99.90
39017;DHT22;24784;45.582;5.276;2024-02-23T11:00:36;9.40;99.90
39017;DHT22;24784;45.582;5.276;2024-02-23T11:03:03;9.50;99.90
39017;DHT22;24784;45.582;5.276;2024-02-23T11:05:30;9.50;99.90
39017;DHT22;24784;45.582;5.276;2024-02-23T11:07:56;9.60;99.90
39017;DHT22;24784;45.582;5.276;2024-02-23T11:10:22;9.60;99.90
39017;DHT22;24784;45.582;5.276;2024-02-23T11:12:58;9.60;99.90
39017;DHT22;24784;45.582;5.276;2024-02-23T11:15:28;9.70;99.90
39017;DHT22;24784;45.582;5.276;2024-02-23T11:22:56;9.50;99.90
39017;DHT22;24784;45.582;5.276;2024-02-23T11:25:26;9.50;99.90
39017;DHT22;24784;45.582;5.276;2024-02-23T11:27:52;9.40;99.90
39017;DHT22;24784;45.582;5.276;2024-02-23T11:30:18;9.40;99.90
39017;DHT22;24784;45.582;5.276;2024-02-23T11:32:45;9.50;99.90
39017;DHT22;24784;45.582;5.276;2024-02-23T11:35:17;9.50;99.90
39017;DHT22;24784;45.582;5.276;2024-02-23T11:37:53;9.50;99.90
39017;DHT22;24784;45.582;5.276;2024-02-23T11:40:25;9.60;99.90
39017;DHT22;24784;45.582;5.276;2024-02-23T11:42:50;9.60;99.70
39017;DHT22;24784;45.582;5.276;2024-02-23T11:45:16;9.60;99.90
39017;DHT22;24784;45.582;5.276;2024-02-23T11:47:42;9.70;99.90
39017;DHT22;24784;45.582;5.276;2024-02-23T11:50:09;9.90;99.90
39017;DHT22;24784;45.582;5.276;2024-02-23T11:52:36;9.90;99.90
39017;DHT22;24784;45.582;5.276;2024-02-23T11:55:02;9.90;99.20
39017;DHT22;24784;45.582;5.276;2024-02-23T11:59:56;10.10;99.30
39017;DHT22;24784;45.582;5.276;2024-02-23T12:02:24;10.10;97.50
39017;DHT22;24784;45.582;5.276;2024-02-23T12:04:49;10.20;98.20
39017;DHT22;24784;45.582;5.276;2024-02-23T12:07:15;10.40;99.10
39017;DHT22;24784;45.582;5.276;2024-02-23T12:09:41;10.30;97.70
39017;DHT22;24784;45.582;5.276;2024-02-23T12:12:08;10.30;99.10
39017;DHT22;24784;45.582;5.276;2024-02-23T12:14:37;10.20;96.60
39017;DHT22;24784;45.582;5.276;2024-02-23T12:17:03;10.20;96.80
39017;DHT22;24784;45.582;5.276;2024-02-23T12:19:32;10.10;97.10
39017;DHT22;24784;45.582;5.276;2024-02-23T12:22:01;10.10;97.50
39017;DHT22;24784;45.582;5.276;2024-02-23T12:24:27;10.00;96.70
39017;DHT22;24784;45.582;5.276;2024-02-23T12:26:55;10.00;97.70
39017;DHT22;24784;45.582;5.276;2024-02-23T12:29:21;10.00;97.70
39017;DHT22;24784;45.582;5.276;2024-02-23T12:31:47;10.00;98.40
39017;DHT22;24784;45.582;5.276;2024-02-23T12:34:13;9.90;97.80
39017;DHT22;24784;45.582;5.276;2024-02-23T12:36:39;9.90;97.80
39017;DHT22;24784;45.582;5.276;2024-02-23T12:39:05;9.90;99.10
39017;DHT22;24784;45.582;5.276;2024-02-23T12:41:31;10.00;97.90
39017;DHT22;24784;45.582;5.276;2024-02-23T12:43:57;10.10;98.80
39017;DHT22;24784;45.582;5.276;2024-02-23T12:46:22;10.20;98.60
39017;DHT22;24784;45.582;5.276;2024-02-23T12:48:49;10.20;98.50
39017;DHT22;24784;45.582;5.276;2024-02-23T12:51:15;10.10;98.10
39017;DHT22;24784;45.582;5.276;2024-02-23T12:53:41;10.10;99.00
39017;DHT22;24784;45.582;5.276;2024-02-23T12:56:12;10.00;97.80
39017;DHT22;24784;45.582;5.276;2024-02-23T12:58:40;10.00;96.50
39017;DHT22;24784;45.582;5.276;2024-02-23T13:01:06;10.00;97.90
39017;DHT22;24784;45.582;5.276;2024-02-23T13:03:33;10.00;99.00
39017;DHT22;24784;45.582;5.276;2024-02-23T13:05:59;10.00;98.70
39017;DHT22;24784;45.582;5.276;2024-02-23T13:08:25;10.00;99.10
39017;DHT22;24784;45.582;5.276;2024-02-23T13:10:53;9.90;96.80
39017;DHT22;24784;45.582;5.276;2024-02-23T13:13:19;9.90;97.80
39017;DHT22;24784;45.582;5.276;2024-02-23T13:15:50;9.90;99.30
39017;DHT22;24784;45.582;5.276;2024-02-23T13:18:16;9.90;99.50
39017;DHT22;24784;45.582;5.276;2024-02-23T13:20:42;10.00;99.30
39017;DHT22;24784;45.582;5.276;2024-02-23T13:23:11;10.10;98.20
39017;DHT22;24784;45.582;5.276;2024-02-23T13:25:40;10.10;99.50
39017;DHT22;24784;45.582;5.276;2024-02-23T13:28:07;10.10;99.50
39017;DHT22;24784;45.582;5.276;2024-02-23T13:30:33;10.00;98.80
39017;DHT22;24784;45.582;5.276;2024-02-23T13:32:59;9.90;98.10
39017;DHT22;24784;45.582;5.276;2024-02-23T13:35:28;9.90;97.90
39017;DHT22;24784;45.582;5.276;2024-02-23T13:37:54;9.90;98.40
39017;DHT22;24784;45.582;5.276;2024-02-23T13:40:20;9.90;99.00
39017;DHT22;24784;45.582;5.276;2024-02-23T13:42:46;9.80;99.10
39017;DHT22;24784;45.582;5.276;2024-02-23T13:45:15;9.80;96.80
39017;DHT22;24784;45.582;5.276;2024-02-23T13:47:42;9.80;97.90
39017;DHT22;24784;45.582;5.276;2024-02-23T13:50:08;9.70;98.80
39017;DHT22;24784;45.582;5.276;2024-02-23T13:52:34;9.80;99.40
39017;DHT22;24784;45.582;5.276;2024-02-23T13:55:00;9.80;99.90
39017;DHT22;24784;45.582;5.276;2024-02-23T13:57:26;9.70;99.90
39017;DHT22;24784;45.582;5.276;2024-02-23T13:59:51;9.70;99.90
39017;DHT22;24784;45.582;5.276;2024-02-23T14:02:25;9.70;99.90
39017;DHT22;24784;45.582;5.276;2024-02-23T14:04:51;9.70;99.90
39017;DHT22;24784;45.582;5.276;2024-02-23T14:07:16;9.60;99.90
39017;DHT22;24784;45.582;5.276;2024-02-23T14:09:43;9.60;99.90
39017;DHT22;24784;45.582;5.276;2024-02-23T14:12:09;9.60;99.80
39017;DHT22;24784;45.582;5.276;2024-02-23T14:14:34;9.60;99.80
39017;DHT22;24784;45.582;5.276;2024-02-23T14:17:00;9.60;99.60
39017;DHT22;24784;45.582;5.276;2024-02-23T14:19:25;9.60;99.50
39017;DHT22;24784;45.582;5.276;2024-02-23T14:21:52;9.50;99.50
39017;DHT22;24784;45.582;5.276;2024-02-23T14:24:17;9.50;99.60
39017;DHT22;24784;45.582;5.276;2024-02-23T14:26:43;9.50;99.10
39017;DHT22;24784;45.582;5.276;2024-02-23T14:29:09;9.50;99.90
39017;DHT22;24784;45.582;5.276;2024-02-23T14:31:35;9.50;99.90
39017;DHT22;24784;45.582;5.276;2024-02-23T14:34:01;9.40;99.50
39017;DHT22;24784;45.582;5.276;2024-02-23T14:36:27;9.30;99.80
39017;DHT22;24784;45.582;5.276;2024-02-23T14:38:53;9.30;99.90
39017;DHT22;24784;45.582;5.276;2024-02-23T14:41:18;9.20;99.90
39017;DHT22;24784;45.582;5.276;2024-02-23T14:43:44;9.20;99.90
39017;DHT22;24784;45.582;5.276;2024-02-23T14:46:10;9.10;99.90
39017;DHT22;24784;45.582;5.276;2024-02-23T14:48:35;9.10;99.90
39017;DHT22;24784;45.582;5.276;2024-02-23T14:51:02;9.20;99.90
39017;DHT22;24784;45.582;5.276;2024-02-23T14:53:30;9.20;99.90
39017;DHT22;24784;45.582;5.276;2024-02-23T14:55:56;9.20;99.90
39017;DHT22;24784;45.582;5.276;2024-02-23T14:58:21;9.10;99.90
39017;DHT22;24784;45.582;5.276;2024-02-23T15:00:47;9.10;99.90
39017;DHT22;24784;45.582;5.276;2024-02-23T15:03:13;9.10;99.90
39017;DHT22;24784;45.582;5.276;2024-02-23T15:05:40;9.10;99.90
39017;DHT22;24784;45.582;5.276;2024-02-23T15:08:06;9.10;99.90
39017;DHT22;24784;45.582;5.276;2024-02-23T15:10:33;9.10;99.90
39017;DHT22;24784;45.582;5.276;2024-02-23T15:12:59;9.00;99.90
39017;DHT22;24784;45.582;5.276;2024-02-23T15:15:25;9.00;99.90
39017;DHT22;24784;45.582;5.276;2024-02-23T15:17:51;9.00;99.90
39017;DHT22;24784;45.582;5.276;2024-02-23T15:20:18;9.00;99.90
39017;DHT22;24784;45.582;5.276;2024-02-23T15:22:44;8.90;99.90
39017;DHT22;24784;45.582;5.276;2024-02-23T15:25:12;8.90;99.90
39017;DHT22;24784;45.582;5.276;2024-02-23T15:27:38;8.90;99.90
39017;DHT22;24784;45.582;5.276;2024-02-23T15:30:07;8.80;99.90
39017;DHT22;24784;45.582;5.276;2024-02-23T15:32:34;8.80;99.90
39017;DHT22;24784;45.582;5.276;2024-02-23T15:35:00;8.80;99.90
39017;DHT22;24784;45.582;5.276;2024-02-23T15:37:28;8.80;99.90
39017;DHT22;24784;45.582;5.276;2024-02-23T15:39:54;8.70;99.90
39017;DHT22;24784;45.582;5.276;2024-02-23T15:42:19;8.50;99.90
39017;DHT22;24784;45.582;5.276;2024-02-23T15:44:46;8.40;99.90
39017;DHT22;24784;45.582;5.276;2024-02-23T15:47:12;8.30;99.90